createdAt,value
2023-02-28T00:00:27.000Z,-3.5000000000000004
2023-02-28T00:00:59.000Z,-3.5000000000000004
2023-02-28T00:01:20.000Z,-3.5000000000000004
2023-02-28T00:01:49.000Z,-3.5000000000000004
2023-02-28T00:02:19.000Z,-3.5000000000000004
2023-02-28T00:02:49.000Z,-3.611111111111111
2023-02-28T00:03:24.000Z,-3.611111111111111
2023-02-28T00:03:54.000Z,-3.3888888888888897
2023-02-28T00:04:19.000Z,-3.3888888888888897
2023-02-28T00:04:40.000Z,-3.3888888888888897
2023-02-28T00:05:09.000Z,-3.3888888888888897
2023-02-28T00:05:39.000Z,-3.611111111111111
2023-02-28T00:06:05.000Z,-3.611111111111111
2023-02-28T00:06:34.000Z,-3.5000000000000004
2023-02-28T00:07:04.000Z,-3.5000000000000004
2023-02-28T00:07:39.000Z,-3.5000000000000004
2023-02-28T00:08:09.000Z,-3.5000000000000004
2023-02-28T00:08:44.000Z,-3.611111111111111
2023-02-28T00:09:14.000Z,-3.611111111111111
2023-02-28T00:09:49.000Z,-3.3888888888888897
2023-02-28T00:10:19.000Z,-3.3888888888888897
2023-02-28T00:10:49.000Z,-3.3888888888888897
2023-02-28T00:11:24.000Z,-3.3888888888888897
2023-02-28T00:11:54.000Z,-3.5000000000000004
2023-02-28T00:12:20.000Z,-3.5000000000000004
2023-02-28T00:12:40.000Z,-3.5000000000000004
2023-02-28T00:13:09.000Z,-3.5000000000000004
2023-02-28T00:13:29.000Z,-3.5000000000000004
2023-02-28T00:14:04.000Z,-3.5000000000000004
2023-02-28T00:14:32.000Z,-3.5000000000000004
2023-02-28T00:14:49.000Z,-3.5000000000000004
2023-02-28T00:15:24.000Z,-3.5000000000000004
2023-02-28T00:15:54.000Z,-3.5000000000000004
2023-02-28T00:16:29.000Z,-3.5000000000000004
2023-02-28T00:16:59.000Z,-3.5000000000000004
2023-02-28T00:17:20.000Z,-3.5000000000000004
2023-02-28T00:17:49.000Z,-3.5000000000000004
2023-02-28T00:18:19.000Z,-3.5000000000000004
2023-02-28T00:18:49.000Z,-3.5000000000000004
2023-02-28T00:19:34.000Z,-3.5000000000000004
2023-02-28T00:19:57.000Z,-3.5000000000000004
2023-02-28T00:20:24.000Z,-3.5000000000000004
2023-02-28T00:20:49.000Z,-3.5000000000000004
2023-02-28T00:21:15.000Z,-3.277777777777777
2023-02-28T00:21:49.000Z,-3.3888888888888897
2023-02-28T00:22:19.000Z,-3.611111111111111
2023-02-28T00:22:49.000Z,-3.3888888888888897
2023-02-28T00:23:24.000Z,-3.3888888888888897
2023-02-28T00:23:54.000Z,-3.3888888888888897
2023-02-28T00:24:20.000Z,-3.3888888888888897
2023-02-28T00:24:44.000Z,-3.3888888888888897
2023-02-28T00:25:14.000Z,-3.3888888888888897
2023-02-28T00:25:49.000Z,-3.3888888888888897
2023-02-28T00:26:19.000Z,-3.3888888888888897
2023-02-28T00:26:49.000Z,-3.3888888888888897
2023-02-28T00:27:24.000Z,-3.3888888888888897
2023-02-28T00:28:04.000Z,-3.3888888888888897
2023-02-28T00:28:30.000Z,-3.3888888888888897
2023-02-28T00:28:56.000Z,-3.3888888888888897
2023-02-28T00:29:14.000Z,-3.3888888888888897
2023-02-28T00:29:49.000Z,-3.3888888888888897
2023-02-28T00:30:19.000Z,-3.3888888888888897
2023-02-28T00:30:49.000Z,-3.3888888888888897
2023-02-28T00:31:24.000Z,-3.3888888888888897
2023-02-28T00:31:54.000Z,-3.5000000000000004
2023-02-28T00:32:19.000Z,-3.5000000000000004
2023-02-28T00:32:44.000Z,-3.611111111111111
2023-02-28T00:33:14.000Z,-3.611111111111111
2023-02-28T00:33:49.000Z,-3.611111111111111
2023-02-28T00:34:19.000Z,-3.611111111111111
2023-02-28T00:34:49.000Z,-3.611111111111111
2023-02-28T00:35:34.000Z,-3.5000000000000004
2023-02-28T00:35:56.000Z,-3.5000000000000004
2023-02-28T00:36:24.000Z,-3.5000000000000004
2023-02-28T00:36:59.000Z,-3.5000000000000004
2023-02-28T00:37:21.000Z,-3.5000000000000004
2023-02-28T00:37:49.000Z,-3.5000000000000004
2023-02-28T00:38:19.000Z,-3.5000000000000004
2023-02-28T00:38:49.000Z,-3.5000000000000004
2023-02-28T00:39:24.000Z,-3.5000000000000004
2023-02-28T00:39:54.000Z,-3.5000000000000004
2023-02-28T00:40:19.000Z,-3.5000000000000004
2023-02-28T00:40:44.000Z,-3.5000000000000004
2023-02-28T00:41:14.000Z,-3.5000000000000004
2023-02-28T00:41:49.000Z,-3.5000000000000004
2023-02-28T00:42:19.000Z,-3.5000000000000004
2023-02-28T00:42:49.000Z,-3.5000000000000004
2023-02-28T00:43:24.000Z,-3.5000000000000004
2023-02-28T00:43:54.000Z,-3.5000000000000004
2023-02-28T00:44:27.000Z,-3.5000000000000004
2023-02-28T00:44:59.000Z,-3.5000000000000004
2023-02-28T00:45:21.000Z,-3.5000000000000004
2023-02-28T00:45:49.000Z,-3.611111111111111
2023-02-28T00:46:19.000Z,-3.611111111111111
2023-02-28T00:46:49.000Z,-3.611111111111111
2023-02-28T00:47:24.000Z,-3.611111111111111
2023-02-28T00:47:54.000Z,-3.611111111111111
2023-02-28T00:48:20.000Z,-3.611111111111111
2023-02-28T00:48:44.000Z,-3.611111111111111
2023-02-28T00:49:14.000Z,-3.611111111111111
2023-02-28T00:49:49.000Z,-3.611111111111111
2023-02-28T00:50:20.000Z,-3.3888888888888897
2023-02-28T00:50:49.000Z,-3.5000000000000004
2023-02-28T00:51:24.000Z,-3.5000000000000004
2023-02-28T00:51:54.000Z,-3.5000000000000004
2023-02-28T00:52:19.000Z,-3.5000000000000004
2023-02-28T00:52:44.000Z,-3.5000000000000004
2023-02-28T00:53:15.000Z,-3.5000000000000004
2023-02-28T00:53:49.000Z,-3.5000000000000004
2023-02-28T00:54:19.000Z,-3.5000000000000004
2023-02-28T00:54:49.000Z,-3.5000000000000004
2023-02-28T00:55:24.000Z,-3.611111111111111
2023-02-28T00:55:54.000Z,-3.611111111111111
2023-02-28T00:56:27.000Z,-3.611111111111111
2023-02-28T00:56:59.000Z,-3.5000000000000004
2023-02-28T00:57:22.000Z,-3.5000000000000004
2023-02-28T00:57:49.000Z,-3.5000000000000004
2023-02-28T00:58:29.000Z,-3.5000000000000004
2023-02-28T00:58:51.000Z,-3.5000000000000004
2023-02-28T00:59:24.000Z,-3.5000000000000004
2023-02-28T00:59:54.000Z,-3.5000000000000004
2023-02-28T01:00:19.000Z,-3.5000000000000004
2023-02-28T01:00:44.000Z,-3.5000000000000004
2023-02-28T01:01:14.000Z,-3.5000000000000004
2023-02-28T01:01:49.000Z,-3.611111111111111
2023-02-28T01:02:19.000Z,-3.611111111111111
2023-02-28T01:02:49.000Z,-3.611111111111111
2023-02-28T01:03:24.000Z,-3.611111111111111
2023-02-28T01:03:54.000Z,-3.7222222222222223
2023-02-28T01:04:22.000Z,-3.7222222222222223
2023-02-28T01:04:44.000Z,-3.7222222222222223
2023-02-28T01:05:14.000Z,-3.7222222222222223
2023-02-28T01:05:49.000Z,-3.611111111111111
2023-02-28T01:06:29.000Z,-3.611111111111111
2023-02-28T01:06:50.000Z,-3.611111111111111
2023-02-28T01:07:24.000Z,-3.611111111111111
2023-02-28T01:07:54.000Z,-3.611111111111111
2023-02-28T01:08:27.000Z,-3.611111111111111
2023-02-28T01:08:59.000Z,-3.7222222222222223
2023-02-28T01:09:20.000Z,-3.7222222222222223
2023-02-28T01:09:49.000Z,-3.7222222222222223
2023-02-28T01:10:19.000Z,-3.7222222222222223
2023-02-28T01:10:49.000Z,-3.7222222222222223
2023-02-28T01:11:24.000Z,-3.7222222222222223
2023-02-28T01:11:54.000Z,-3.611111111111111
2023-02-28T01:12:27.000Z,-3.611111111111111
2023-02-28T01:13:00.000Z,-3.611111111111111
2023-02-28T01:13:24.000Z,-3.7222222222222223
2023-02-28T01:13:49.000Z,-3.7222222222222223
2023-02-28T01:14:19.000Z,-3.7222222222222223
2023-02-28T01:14:49.000Z,-3.7222222222222223
2023-02-28T01:15:34.000Z,-3.7222222222222223
2023-02-28T01:15:56.000Z,-3.7222222222222223
2023-02-28T01:16:24.000Z,-3.7222222222222223
2023-02-28T01:16:59.000Z,-3.7222222222222223
2023-02-28T01:17:22.000Z,-3.7222222222222223
2023-02-28T01:17:49.000Z,-3.7777777777777777
2023-02-28T01:18:19.000Z,-3.7777777777777777
2023-02-28T01:18:50.000Z,-3.7777777777777777
2023-02-28T01:19:24.000Z,-3.7777777777777777
2023-02-28T01:19:54.000Z,-3.888888888888889
2023-02-28T01:20:19.000Z,-3.888888888888889
2023-02-28T01:20:44.000Z,-3.888888888888889
2023-02-28T01:21:14.000Z,-3.888888888888889
2023-02-28T01:21:49.000Z,-3.888888888888889
2023-02-28T01:22:19.000Z,-3.888888888888889
2023-02-28T01:22:49.000Z,-3.888888888888889
2023-02-28T01:23:24.000Z,-3.888888888888889
2023-02-28T01:23:54.000Z,-4.0
2023-02-28T01:24:19.000Z,-4.0
2023-02-28T01:24:45.000Z,-3.7777777777777777
2023-02-28T01:25:12.000Z,-3.888888888888889
2023-02-28T01:25:39.000Z,-3.888888888888889
2023-02-28T01:26:05.000Z,-3.888888888888889
2023-02-28T01:26:34.000Z,-3.888888888888889
2023-02-28T01:27:09.000Z,-3.888888888888889
2023-02-28T01:27:39.000Z,-3.888888888888889
2023-02-28T01:28:09.000Z,-3.888888888888889
2023-02-28T01:28:44.000Z,-4.0
2023-02-28T01:29:14.000Z,-4.0
2023-02-28T01:29:49.000Z,-4.0
2023-02-28T01:30:19.000Z,-4.0
2023-02-28T01:30:49.000Z,-4.0
2023-02-28T01:31:24.000Z,-4.0
2023-02-28T01:31:54.000Z,-4.0
2023-02-28T01:32:20.000Z,-4.0
2023-02-28T01:32:44.000Z,-4.0
2023-02-28T01:33:14.000Z,-4.0
2023-02-28T01:33:49.000Z,-3.888888888888889
2023-02-28T01:34:16.000Z,-3.888888888888889
2023-02-28T01:34:34.000Z,-3.888888888888889
2023-02-28T01:35:09.000Z,-3.888888888888889
2023-02-28T01:35:40.000Z,-3.7777777777777777
2023-02-28T01:36:09.000Z,-3.7222222222222223
2023-02-28T01:36:44.000Z,-3.7222222222222223
2023-02-28T01:37:14.000Z,-3.7222222222222223
2023-02-28T01:37:49.000Z,-3.7222222222222223
2023-02-28T01:38:19.000Z,-3.7222222222222223
2023-02-28T01:38:49.000Z,-3.7222222222222223
2023-02-28T01:39:24.000Z,-3.7222222222222223
2023-02-28T01:39:54.000Z,-3.7222222222222223
2023-02-28T01:40:19.000Z,-3.888888888888889
2023-02-28T01:40:44.000Z,-3.7222222222222223
2023-02-28T01:41:14.000Z,-3.7777777777777777
2023-02-28T01:41:49.000Z,-3.7777777777777777
2023-02-28T01:42:16.000Z,-3.7777777777777777
2023-02-28T01:42:49.000Z,-3.7777777777777777
2023-02-28T01:43:34.000Z,-3.7777777777777777
2023-02-28T01:43:56.000Z,-3.7777777777777777
2023-02-28T01:44:21.000Z,-3.7777777777777777
2023-02-28T01:44:44.000Z,-3.7777777777777777
2023-02-28T01:45:14.000Z,-3.7777777777777777
2023-02-28T01:45:49.000Z,-3.7777777777777777
2023-02-28T01:46:19.000Z,-3.7777777777777777
2023-02-28T01:46:51.000Z,-3.7777777777777777
2023-02-28T01:47:24.000Z,-3.7777777777777777
2023-02-28T01:47:54.000Z,-3.7777777777777777
2023-02-28T01:48:19.000Z,-3.7777777777777777
2023-02-28T01:48:44.000Z,-3.7777777777777777
2023-02-28T01:49:14.000Z,-3.7777777777777777
2023-02-28T01:49:49.000Z,-3.7777777777777777
2023-02-28T01:50:29.000Z,-3.7777777777777777
2023-02-28T01:50:51.000Z,-3.7777777777777777
2023-02-28T01:51:19.000Z,-3.7777777777777777
2023-02-28T01:51:36.000Z,-3.7777777777777777
2023-02-28T01:52:19.000Z,-3.888888888888889
2023-02-28T01:52:45.000Z,-3.888888888888889
2023-02-28T01:53:12.000Z,-3.888888888888889
2023-02-28T01:53:29.000Z,-3.888888888888889
2023-02-28T01:54:04.000Z,-3.888888888888889
2023-02-28T01:54:34.000Z,-3.888888888888889
2023-02-28T01:55:04.000Z,-3.7777777777777777
2023-02-28T01:55:39.000Z,-3.7777777777777777
2023-02-28T01:56:09.000Z,-3.7777777777777777
2023-02-28T01:56:44.000Z,-3.7777777777777777
2023-02-28T01:57:14.000Z,-3.7777777777777777
2023-02-28T01:57:49.000Z,-3.888888888888889
2023-02-28T01:58:19.000Z,-3.888888888888889
2023-02-28T01:58:49.000Z,-4.0
2023-02-28T01:59:24.000Z,-4.0
2023-02-28T01:59:55.000Z,-4.0
2023-02-28T02:00:19.000Z,-4.0
2023-02-28T02:00:45.000Z,-3.888888888888889
2023-02-28T02:01:12.000Z,-3.888888888888889
2023-02-28T02:01:49.000Z,-3.888888888888889
2023-02-28T02:02:29.000Z,-3.888888888888889
2023-02-28T02:02:51.000Z,-4.0
2023-02-28T02:03:19.000Z,-4.0
2023-02-28T02:03:49.000Z,-4.0
2023-02-28T02:04:19.000Z,-4.0
2023-02-28T02:04:44.000Z,-3.7777777777777777
2023-02-28T02:05:14.000Z,-3.7777777777777777
2023-02-28T02:05:49.000Z,-3.7777777777777777
2023-02-28T02:06:19.000Z,-3.7777777777777777
2023-02-28T02:06:49.000Z,-3.7777777777777777
2023-02-28T02:07:24.000Z,-3.7777777777777777
2023-02-28T02:07:55.000Z,-3.7777777777777777
2023-02-28T02:08:29.000Z,-3.888888888888889
2023-02-28T02:08:59.000Z,-3.888888888888889
2023-02-28T02:09:21.000Z,-3.888888888888889
2023-02-28T02:09:49.000Z,-3.7777777777777777
2023-02-28T02:10:19.000Z,-3.7777777777777777
2023-02-28T02:10:49.000Z,-3.7777777777777777
2023-02-28T02:11:34.000Z,-3.7777777777777777
2023-02-28T02:11:57.000Z,-3.7222222222222223
2023-02-28T02:12:24.000Z,-3.7222222222222223
2023-02-28T02:12:49.000Z,-3.7222222222222223
2023-02-28T02:13:15.000Z,-3.7222222222222223
2023-02-28T02:13:49.000Z,-3.7222222222222223
2023-02-28T02:14:19.000Z,-3.7222222222222223
2023-02-28T02:14:49.000Z,-3.7222222222222223
2023-02-28T02:15:24.000Z,-3.7222222222222223
2023-02-28T02:15:54.000Z,-3.7222222222222223
2023-02-28T02:16:19.000Z,-3.611111111111111
2023-02-28T02:16:44.000Z,-3.7777777777777777
2023-02-28T02:17:14.000Z,-3.7777777777777777
2023-02-28T02:17:49.000Z,-3.7777777777777777
2023-02-28T02:18:19.000Z,-3.7777777777777777
2023-02-28T02:18:49.000Z,-3.7777777777777777
2023-02-28T02:19:24.000Z,-3.7777777777777777
2023-02-28T02:19:54.000Z,-3.7777777777777777
2023-02-28T02:20:19.000Z,-3.7777777777777777
2023-02-28T02:20:40.000Z,-3.7777777777777777
2023-02-28T02:20:59.000Z,-3.7777777777777777
2023-02-28T02:21:34.000Z,-3.7777777777777777
2023-02-28T02:22:04.000Z,-3.7777777777777777
2023-02-28T02:22:32.000Z,-3.7777777777777777
2023-02-28T02:22:49.000Z,-3.7777777777777777
2023-02-28T02:23:24.000Z,-3.7777777777777777
2023-02-28T02:23:54.000Z,-3.7777777777777777
2023-02-28T02:24:19.000Z,-3.888888888888889
2023-02-28T02:24:44.000Z,-3.888888888888889
2023-02-28T02:25:14.000Z,-3.888888888888889
2023-02-28T02:25:49.000Z,-3.888888888888889
2023-02-28T02:26:19.000Z,-3.888888888888889
2023-02-28T02:26:49.000Z,-3.888888888888889
2023-02-28T02:27:24.000Z,-3.7777777777777777
2023-02-28T02:27:52.000Z,-3.7777777777777777
2023-02-28T02:28:19.000Z,-3.7222222222222223
2023-02-28T02:28:45.000Z,-3.7222222222222223
2023-02-28T02:29:12.000Z,-3.7222222222222223
2023-02-28T02:29:39.000Z,-3.7222222222222223
2023-02-28T02:30:05.000Z,-3.7777777777777777
2023-02-28T02:30:29.000Z,-3.7777777777777777
2023-02-28T02:30:54.000Z,-3.7777777777777777
2023-02-28T02:31:24.000Z,-3.888888888888889
2023-02-28T02:31:54.000Z,-4.111111111111111
2023-02-28T02:32:19.000Z,-4.111111111111111
2023-02-28T02:32:44.000Z,-4.111111111111111
2023-02-28T02:33:14.000Z,-3.888888888888889
2023-02-28T02:33:49.000Z,-3.888888888888889
2023-02-28T02:34:19.000Z,-3.888888888888889
2023-02-28T02:34:49.000Z,-3.888888888888889
2023-02-28T02:35:24.000Z,-4.111111111111111
2023-02-28T02:35:54.000Z,-4.111111111111111
2023-02-28T02:36:20.000Z,-4.111111111111111
2023-02-28T02:36:44.000Z,-4.0
2023-02-28T02:37:15.000Z,-4.0
2023-02-28T02:37:49.000Z,-4.0
2023-02-28T02:38:19.000Z,-4.111111111111111
2023-02-28T02:38:59.000Z,-4.111111111111111
2023-02-28T02:39:25.000Z,-4.111111111111111
2023-02-28T02:39:56.000Z,-4.111111111111111
2023-02-28T02:40:20.000Z,-4.111111111111111
2023-02-28T02:40:44.000Z,-4.111111111111111
2023-02-28T02:41:14.000Z,-4.111111111111111
2023-02-28T02:41:49.000Z,-4.111111111111111
2023-02-28T02:42:19.000Z,-4.111111111111111
2023-02-28T02:42:49.000Z,-4.111111111111111
2023-02-28T02:43:25.000Z,-4.222222222222223
2023-02-28T02:43:54.000Z,-4.222222222222223
2023-02-28T02:44:19.000Z,-4.277777777777778
2023-02-28T02:44:44.000Z,-4.277777777777778
2023-02-28T02:45:14.000Z,-4.277777777777778
2023-02-28T02:45:49.000Z,-4.277777777777778
2023-02-28T02:46:19.000Z,-4.277777777777778
2023-02-28T02:46:50.000Z,-4.277777777777778
2023-02-28T02:47:24.000Z,-4.277777777777778
2023-02-28T02:47:55.000Z,-4.277777777777778
2023-02-28T02:48:27.000Z,-4.222222222222223
2023-02-28T02:48:59.000Z,-4.222222222222223
2023-02-28T02:49:20.000Z,-4.222222222222223
2023-02-28T02:49:49.000Z,-4.222222222222223
2023-02-28T02:50:19.000Z,-4.222222222222223
2023-02-28T02:50:49.000Z,-4.222222222222223
2023-02-28T02:51:24.000Z,-4.222222222222223
2023-02-28T02:51:54.000Z,-4.222222222222223
2023-02-28T02:52:27.000Z,-4.222222222222223
2023-02-28T02:52:59.000Z,-4.222222222222223
2023-02-28T02:53:24.000Z,-4.277777777777778
2023-02-28T02:53:49.000Z,-4.277777777777778
2023-02-28T02:54:16.000Z,-4.277777777777778
2023-02-28T02:54:40.000Z,-4.277777777777778
2023-02-28T02:55:05.000Z,-4.277777777777778
2023-02-28T02:55:39.000Z,-4.277777777777778
2023-02-28T02:56:09.000Z,-4.277777777777778
2023-02-28T02:56:44.000Z,-4.222222222222223
2023-02-28T02:57:14.000Z,-4.222222222222223
2023-02-28T02:57:49.000Z,-4.222222222222223
2023-02-28T02:58:19.000Z,-4.388888888888888
2023-02-28T02:58:49.000Z,-4.388888888888888
2023-02-28T02:59:24.000Z,-4.388888888888888
2023-02-28T02:59:54.000Z,-4.388888888888888
2023-02-28T03:00:19.000Z,-4.388888888888888
2023-02-28T03:00:44.000Z,-4.388888888888888
2023-02-28T03:01:14.000Z,-4.277777777777778
2023-02-28T03:01:59.000Z,-4.388888888888888
2023-02-28T03:02:19.000Z,-4.277777777777778
2023-02-28T03:02:49.000Z,-4.277777777777778
2023-02-28T03:03:24.000Z,-4.277777777777778
2023-02-28T03:03:54.000Z,-4.222222222222223
2023-02-28T03:04:19.000Z,-4.222222222222223
2023-02-28T03:04:44.000Z,-4.388888888888888
2023-02-28T03:05:14.000Z,-4.222222222222223
2023-02-28T03:05:49.000Z,-4.222222222222223
2023-02-28T03:06:19.000Z,-4.388888888888888
2023-02-28T03:06:49.000Z,-4.388888888888888
2023-02-28T03:07:24.000Z,-4.388888888888888
2023-02-28T03:07:54.000Z,-4.500000000000001
2023-02-28T03:08:27.000Z,-4.277777777777778
2023-02-28T03:09:09.000Z,-4.277777777777778
2023-02-28T03:09:29.000Z,-4.500000000000001
2023-02-28T03:10:04.000Z,-4.388888888888888
2023-02-28T03:10:32.000Z,-4.388888888888888
2023-02-28T03:11:04.000Z,-4.388888888888888
2023-02-28T03:11:42.000Z,-4.277777777777778
2023-02-28T03:12:09.000Z,-4.277777777777778
2023-02-28T03:12:44.000Z,-4.277777777777778
2023-02-28T03:13:14.000Z,-4.277777777777778
2023-02-28T03:13:49.000Z,-4.277777777777778
2023-02-28T03:14:19.000Z,-4.277777777777778
2023-02-28T03:14:49.000Z,-4.277777777777778
2023-02-28T03:15:24.000Z,-4.277777777777778
2023-02-28T03:15:55.000Z,-4.277777777777778
2023-02-28T03:16:24.000Z,-4.277777777777778
2023-02-28T03:16:40.000Z,-4.388888888888888
2023-02-28T03:16:59.000Z,-4.388888888888888
2023-02-28T03:17:21.000Z,-4.388888888888888
2023-02-28T03:17:49.000Z,-4.388888888888888
2023-02-28T03:18:19.000Z,-4.388888888888888
2023-02-28T03:18:49.000Z,-4.388888888888888
2023-02-28T03:19:24.000Z,-4.388888888888888
2023-02-28T03:19:54.000Z,-4.388888888888888
2023-02-28T03:20:20.000Z,-4.388888888888888
2023-02-28T03:20:44.000Z,-4.388888888888888
2023-02-28T03:21:14.000Z,-4.388888888888888
2023-02-28T03:21:49.000Z,-4.388888888888888
2023-02-28T03:22:19.000Z,-4.388888888888888
2023-02-28T03:22:49.000Z,-4.388888888888888
2023-02-28T03:23:34.000Z,-4.388888888888888
2023-02-28T03:23:54.000Z,-4.388888888888888
2023-02-28T03:24:19.000Z,-4.388888888888888
2023-02-28T03:24:44.000Z,-4.277777777777778
2023-02-28T03:25:14.000Z,-4.277777777777778
2023-02-28T03:25:49.000Z,-4.277777777777778
2023-02-28T03:26:19.000Z,-4.388888888888888
2023-02-28T03:26:49.000Z,-4.500000000000001
2023-02-28T03:27:34.000Z,-4.500000000000001
2023-02-28T03:27:57.000Z,-4.500000000000001
2023-02-28T03:28:21.000Z,-4.500000000000001
2023-02-28T03:28:44.000Z,-4.388888888888888
2023-02-28T03:29:14.000Z,-4.388888888888888
2023-02-28T03:29:49.000Z,-4.388888888888888
2023-02-28T03:30:19.000Z,-4.500000000000001
2023-02-28T03:30:54.000Z,-4.500000000000001
2023-02-28T03:31:34.000Z,-4.500000000000001
2023-02-28T03:31:57.000Z,-4.500000000000001
2023-02-28T03:32:24.000Z,-4.500000000000001
2023-02-28T03:32:49.000Z,-4.500000000000001
2023-02-28T03:33:15.000Z,-4.500000000000001
2023-02-28T03:33:49.000Z,-4.500000000000001
2023-02-28T03:34:29.000Z,-4.500000000000001
2023-02-28T03:34:52.000Z,-4.500000000000001
2023-02-28T03:35:19.000Z,-4.277777777777778
2023-02-28T03:35:36.000Z,-4.388888888888888
2023-02-28T03:35:54.000Z,-4.388888888888888
2023-02-28T03:36:19.000Z,-4.388888888888888
2023-02-28T03:36:45.000Z,-4.388888888888888
2023-02-28T03:37:12.000Z,-4.388888888888888
2023-02-28T03:37:49.000Z,-4.388888888888888
2023-02-28T03:38:20.000Z,-4.388888888888888
2023-02-28T03:39:04.000Z,-4.388888888888888
2023-02-28T03:39:39.000Z,-4.388888888888888
2023-02-28T03:40:09.000Z,-4.500000000000001
2023-02-28T03:40:44.000Z,-4.500000000000001
2023-02-28T03:41:14.000Z,-4.500000000000001
2023-02-28T03:41:49.000Z,-4.500000000000001
2023-02-28T03:42:19.000Z,-4.500000000000001
2023-02-28T03:42:49.000Z,-4.500000000000001
2023-02-28T03:43:24.000Z,-4.500000000000001
2023-02-28T03:43:54.000Z,-4.500000000000001
2023-02-28T03:44:24.000Z,-4.388888888888888
2023-02-28T03:44:40.000Z,-4.388888888888888
2023-02-28T03:44:59.000Z,-4.388888888888888
2023-02-28T03:45:29.000Z,-4.388888888888888
2023-02-28T03:46:00.000Z,-4.388888888888888
2023-02-28T03:46:29.000Z,-4.277777777777778
2023-02-28T03:46:52.000Z,-4.277777777777778
2023-02-28T03:47:24.000Z,-4.277777777777778
2023-02-28T03:47:54.000Z,-4.277777777777778
2023-02-28T03:48:19.000Z,-4.277777777777778
2023-02-28T03:48:44.000Z,-4.277777777777778
2023-02-28T03:49:14.000Z,-4.277777777777778
2023-02-28T03:49:49.000Z,-4.277777777777778
2023-02-28T03:50:19.000Z,-4.277777777777778
2023-02-28T03:50:49.000Z,-4.277777777777778
2023-02-28T03:51:24.000Z,-4.500000000000001
2023-02-28T03:51:54.000Z,-4.500000000000001
2023-02-28T03:52:19.000Z,-4.500000000000001
2023-02-28T03:52:44.000Z,-4.500000000000001
2023-02-28T03:53:14.000Z,-4.500000000000001
2023-02-28T03:53:59.000Z,-4.500000000000001
2023-02-28T03:54:29.000Z,-4.611111111111111
2023-02-28T03:55:07.000Z,-4.611111111111111
2023-02-28T03:55:40.000Z,-4.611111111111111
2023-02-28T03:56:24.000Z,-4.388888888888888
2023-02-28T03:56:49.000Z,-4.611111111111111
2023-02-28T03:57:14.000Z,-4.500000000000001
2023-02-28T03:57:49.000Z,-4.500000000000001
2023-02-28T03:58:19.000Z,-4.500000000000001
2023-02-28T03:58:49.000Z,-4.500000000000001
2023-02-28T03:59:25.000Z,-4.500000000000001
2023-02-28T03:59:54.000Z,-4.500000000000001
2023-02-28T04:00:20.000Z,-4.500000000000001
2023-02-28T04:00:44.000Z,-4.500000000000001
2023-02-28T04:01:14.000Z,-4.500000000000001
2023-02-28T04:01:49.000Z,-4.500000000000001
2023-02-28T04:02:19.000Z,-4.500000000000001
2023-02-28T04:02:49.000Z,-4.500000000000001
2023-02-28T04:03:24.000Z,-4.500000000000001
2023-02-28T04:03:52.000Z,-4.500000000000001
2023-02-28T04:04:19.000Z,-4.500000000000001
2023-02-28T04:04:44.000Z,-4.500000000000001
2023-02-28T04:05:14.000Z,-4.500000000000001
2023-02-28T04:05:49.000Z,-4.500000000000001
2023-02-28T04:06:19.000Z,-4.500000000000001
2023-02-28T04:06:49.000Z,-4.500000000000001
2023-02-28T04:07:24.000Z,-4.611111111111111
2023-02-28T04:07:54.000Z,-4.611111111111111
2023-02-28T04:08:21.000Z,-4.611111111111111
2023-02-28T04:08:44.000Z,-4.611111111111111
2023-02-28T04:09:14.000Z,-4.611111111111111
2023-02-28T04:09:49.000Z,-4.611111111111111
2023-02-28T04:10:19.000Z,-4.611111111111111
2023-02-28T04:10:59.000Z,-4.611111111111111
2023-02-28T04:11:26.000Z,-4.611111111111111
2023-02-28T04:11:56.000Z,-4.500000000000001
2023-02-28T04:12:24.000Z,-4.500000000000001
2023-02-28T04:12:49.000Z,-4.500000000000001
2023-02-28T04:13:15.000Z,-4.500000000000001
2023-02-28T04:13:49.000Z,-4.500000000000001
2023-02-28T04:14:19.000Z,-4.500000000000001
2023-02-28T04:14:49.000Z,-4.611111111111111
2023-02-28T04:15:24.000Z,-4.611111111111111
2023-02-28T04:15:54.000Z,-4.611111111111111
2023-02-28T04:16:27.000Z,-4.611111111111111
2023-02-28T04:16:59.000Z,-4.722222222222222
2023-02-28T04:17:21.000Z,-4.722222222222222
2023-02-28T04:17:49.000Z,-4.722222222222222
2023-02-28T04:18:19.000Z,-4.722222222222222
2023-02-28T04:18:49.000Z,-4.611111111111111
2023-02-28T04:19:24.000Z,-4.611111111111111
2023-02-28T04:19:54.000Z,-4.611111111111111
2023-02-28T04:20:29.000Z,-4.611111111111111
2023-02-28T04:20:59.000Z,-4.722222222222222
2023-02-28T04:21:21.000Z,-4.722222222222222
2023-02-28T04:21:49.000Z,-4.722222222222222
2023-02-28T04:22:19.000Z,-4.611111111111111
2023-02-28T04:22:49.000Z,-4.611111111111111
2023-02-28T04:23:34.000Z,-4.611111111111111
2023-02-28T04:23:57.000Z,-4.611111111111111
2023-02-28T04:24:21.000Z,-4.611111111111111
2023-02-28T04:24:44.000Z,-4.611111111111111
2023-02-28T04:25:14.000Z,-4.611111111111111
2023-02-28T04:25:49.000Z,-4.611111111111111
2023-02-28T04:26:19.000Z,-4.611111111111111
2023-02-28T04:26:49.000Z,-4.611111111111111
2023-02-28T04:27:24.000Z,-4.611111111111111
2023-02-28T04:27:52.000Z,-4.722222222222222
2023-02-28T04:28:19.000Z,-4.722222222222222
2023-02-28T04:28:45.000Z,-4.722222222222222
2023-02-28T04:29:14.000Z,-4.722222222222222
2023-02-28T04:29:49.000Z,-4.722222222222222
2023-02-28T04:30:19.000Z,-4.722222222222222
2023-02-28T04:30:49.000Z,-4.722222222222222
2023-02-28T04:31:24.000Z,-4.777777777777779
2023-02-28T04:31:54.000Z,-4.722222222222222